sensor_id;sensor_type;location;lat;lon;timestamp;temperature;humidity
7143;DHT22;3613;48.902;9.204;2024-03-02T00:01:26;17.90;99.90
7143;DHT22;3613;48.902;9.204;2024-03-02T00:03:52;18.00;99.90
7143;DHT22;3613;48.902;9.204;2024-03-02T00:06:20;17.90;99.90
7143;DHT22;3613;48.902;9.204;2024-03-02T00:08:46;17.90;99.90
7143;DHT22;3613;48.902;9.204;2024-03-02T00:11:12;17.90;99.90
7143;DHT22;3613;48.902;9.204;2024-03-02T00:13:41;17.90;99.90
7143;DHT22;3613;48.902;9.204;2024-03-02T00:16:07;17.90;99.90
7143;DHT22;3613;48.902;9.204;2024-03-02T00:18:34;17.90;99.90
7143;DHT22;3613;48.902;9.204;2024-03-02T00:21:03;18.00;99.90
7143;DHT22;3613;48.902;9.204;2024-03-02T00:23:31;17.90;99.90
7143;DHT22;3613;48.902;9.204;2024-03-02T00:25:58;17.90;99.90
7143;DHT22;3613;48.902;9.204;2024-03-02T00:28:31;17.90;99.90
7143;DHT22;3613;48.902;9.204;2024-03-02T00:33:46;17.90;99.90
7143;DHT22;3613;48.902;9.204;2024-03-02T00:36:16;17.80;99.90
7143;DHT22;3613;48.902;9.204;2024-03-02T00:38:50;17.80;99.90
7143;DHT22;3613;48.902;9.204;2024-03-02T00:41:22;17.80;99.90
7143;DHT22;3613;48.902;9.204;2024-03-02T00:44:00;17.90;99.90
7143;DHT22;3613;48.902;9.204;2024-03-02T00:46:28;17.90;99.90
7143;DHT22;3613;48.902;9.204;2024-03-02T00:48:58;17.90;99.90
7143;DHT22;3613;48.902;9.204;2024-03-02T00:51:28;17.80;99.90
7143;DHT22;3613;48.902;9.204;2024-03-02T00:53:55;17.90;99.90
7143;DHT22;3613;48.902;9.204;2024-03-02T00:56:22;17.90;99.90
7143;DHT22;3613;48.902;9.204;2024-03-02T00:58:51;17.80;99.90
7143;DHT22;3613;48.902;9.204;2024-03-02T01:01:19;17.80;99.90
7143;DHT22;3613;48.902;9.204;2024-03-02T01:03:50;17.80;99.90
7143;DHT22;3613;48.902;9.204;2024-03-02T01:06:16;17.80;99.90
7143;DHT22;3613;48.902;9.204;2024-03-02T01:08:42;17.80;99.90
7143;DHT22;3613;48.902;9.204;2024-03-02T01:11:08;17.80;99.90
7143;DHT22;3613;48.902;9.204;2024-03-02T01:13:34;17.80;99.90
7143;DHT22;3613;48.902;9.204;2024-03-02T01:16:00;17.80;99.90
7143;DHT22;3613;48.902;9.204;2024-03-02T01:18:26;17.80;99.90
7143;DHT22;3613;48.902;9.204;2024-03-02T01:20:52;17.80;99.90
7143;DHT22;3613;48.902;9.204;2024-03-02T01:23:19;17.80;99.90
7143;DHT22;3613;48.902;9.204;2024-03-02T01:25:47;17.80;99.90
7143;DHT22;3613;48.902;9.204;2024-03-02T01:28:15;17.80;99.90
7143;DHT22;3613;48.902;9.204;2024-03-02T01:30:41;17.80;99.90
7143;DHT22;3613;48.902;9.204;2024-03-02T01:33:07;17.80;99.90
7143;DHT22;3613;48.902;9.204;2024-03-02T01:35:33;18.20;99.90
7143;DHT22;3613;48.902;9.204;2024-03-02T01:38:00;17.80;99.90
7143;DHT22;3613;48.902;9.204;2024-03-02T01:40:26;17.80;99.90
7143;DHT22;3613;48.902;9.204;2024-03-02T01:42:52;17.70;99.90
7143;DHT22;3613;48.902;9.204;2024-03-02T01:45:24;17.70;99.90
7143;DHT22;3613;48.902;9.204;2024-03-02T01:47:52;17.70;99.90
7143;DHT22;3613;48.902;9.204;2024-03-02T01:50:27;17.80;99.90
7143;DHT22;3613;48.902;9.204;2024-03-02T01:52:55;17.70;99.90
7143;DHT22;3613;48.902;9.204;2024-03-02T01:55:23;17.80;99.90
7143;DHT22;3613;48.902;9.204;2024-03-02T01:57:52;17.60;99.90
7143;DHT22;3613;48.902;9.204;2024-03-02T02:00:18;17.70;99.90
7143;DHT22;3613;48.902;9.204;2024-03-02T02:02:45;17.70;99.90
7143;DHT22;3613;48.902;9.204;2024-03-02T02:05:10;17.80;99.90
7143;DHT22;3613;48.902;9.204;2024-03-02T02:07:36;17.80;99.90
7143;DHT22;3613;48.902;9.204;2024-03-02T02:10:07;17.70;99.90
7143;DHT22;3613;48.902;9.204;2024-03-02T02:12:33;17.70;99.90
7143;DHT22;3613;48.902;9.204;2024-03-02T02:14:58;17.70;99.90
7143;DHT22;3613;48.902;9.204;2024-03-02T02:17:26;17.70;99.90
7143;DHT22;3613;48.902;9.204;2024-03-02T02:19:52;17.70;99.90
7143;DHT22;3613;48.902;9.204;2024-03-02T02:22:18;17.60;99.90
7143;DHT22;3613;48.902;9.204;2024-03-02T02:24:43;17.70;99.90
7143;DHT22;3613;48.902;9.204;2024-03-02T02:27:09;17.70;99.90
7143;DHT22;3613;48.902;9.204;2024-03-02T02:29:39;17.70;99.90
7143;DHT22;3613;48.902;9.204;2024-03-02T02:32:05;17.60;99.90
7143;DHT22;3613;48.902;9.204;2024-03-02T02:34:33;17.70;99.90
7143;DHT22;3613;48.902;9.204;2024-03-02T02:36:59;17.70;99.90
7143;DHT22;3613;48.902;9.204;2024-03-02T02:39:33;17.70;99.90
7143;DHT22;3613;48.902;9.204;2024-03-02T02:41:58;17.70;99.90
7143;DHT22;3613;48.902;9.204;2024-03-02T02:44:28;17.70;99.90
7143;DHT22;3613;48.902;9.204;2024-03-02T02:46:56;17.70;99.90
7143;DHT22;3613;48.902;9.204;2024-03-02T02:49:24;17.70;99.90
7143;DHT22;3613;48.902;9.204;2024-03-02T02:51:49;17.70;99.90
7143;DHT22;3613;48.902;9.204;2024-03-02T02:54:15;17.60;99.90
7143;DHT22;3613;48.902;9.204;2024-03-02T02:56:41;17.60;99.90
7143;DHT22;3613;48.902;9.204;2024-03-02T02:59:07;17.60;99.90
7143;DHT22;3613;48.902;9.204;2024-03-02T03:01:35;17.60;99.90
7143;DHT22;3613;48.902;9.204;2024-03-02T03:04:00;17.60;99.90
7143;DHT22;3613;48.902;9.204;2024-03-02T03:06:26;17.60;99.90
7143;DHT22;3613;48.902;9.204;2024-03-02T03:08:51;17.60;99.90
7143;DHT22;3613;48.902;9.204;2024-03-02T03:11:17;17.60;99.90
7143;DHT22;3613;48.902;9.204;2024-03-02T03:13:45;17.60;99.90
7143;DHT22;3613;48.902;9.204;2024-03-02T03:16:12;17.60;99.90
7143;DHT22;3613;48.902;9.204;2024-03-02T03:18:38;17.60;99.90
7143;DHT22;3613;48.902;9.204;2024-03-02T03:21:06;17.60;99.90
7143;DHT22;3613;48.902;9.204;2024-03-02T03:23:31;17.50;99.90
7143;DHT22;3613;48.902;9.204;2024-03-02T03:25:59;17.60;99.90
7143;DHT22;3613;48.902;9.204;2024-03-02T03:28:29;17.50;99.90
7143;DHT22;3613;48.902;9.204;2024-03-02T03:30:57;17.60;99.90
7143;DHT22;3613;48.902;9.204;2024-03-02T03:33:25;17.50;99.90
7143;DHT22;3613;48.902;9.204;2024-03-02T03:35:53;17.60;99.90
7143;DHT22;3613;48.902;9.204;2024-03-02T03:38:19;17.60;99.90
7143;DHT22;3613;48.902;9.204;2024-03-02T03:40:44;17.60;99.90
7143;DHT22;3613;48.902;9.204;2024-03-02T03:43:13;17.50;99.90
7143;DHT22;3613;48.902;9.204;2024-03-02T03:45:38;17.50;99.90
7143;DHT22;3613;48.902;9.204;2024-03-02T03:48:04;17.60;99.90
7143;DHT22;3613;48.902;9.204;2024-03-02T03:50:30;17.50;99.90
7143;DHT22;3613;48.902;9.204;2024-03-02T03:52:57;17.50;99.90
7143;DHT22;3613;48.902;9.204;2024-03-02T03:55:25;17.50;99.90
7143;DHT22;3613;48.902;9.204;2024-03-02T03:57:53;17.50;99.90
7143;DHT22;3613;48.902;9.204;2024-03-02T04:00:19;17.50;99.90
7143;DHT22;3613;48.902;9.204;2024-03-02T04:02:44;17.40;99.90
7143;DHT22;3613;48.902;9.204;2024-03-02T04:05:15;17.50;99.90
7143;DHT22;3613;48.902;9.204;2024-03-02T04:07:41;17.50;99.90
7143;DHT22;3613;48.902;9.204;2024-03-02T04:10:09;17.40;99.90
7143;DHT22;3613;48.902;9.204;2024-03-02T04:12:38;17.50;99.90
7143;DHT22;3613;48.902;9.204;2024-03-02T04:15:08;17.40;99.90
7143;DHT22;3613;48.902;9.204;2024-03-02T04:17:36;17.40;99.90
7143;DHT22;3613;48.902;9.204;2024-03-02T04:20:04;17.40;99.90
7143;DHT22;3613;48.902;9.204;2024-03-02T04:22:32;17.40;99.90
7143;DHT22;3613;48.902;9.204;2024-03-02T04:25:00;17.40;99.90
7143;DHT22;3613;48.902;9.204;2024-03-02T04:27:28;17.40;99.90
7143;DHT22;3613;48.902;9.204;2024-03-02T04:29:53;17.40;99.90
7143;DHT22;3613;48.902;9.204;2024-03-02T04:32:19;17.40;99.90
7143;DHT22;3613;48.902;9.204;2024-03-02T04:34:47;17.40;99.90
7143;DHT22;3613;48.902;9.204;2024-03-02T04:37:15;17.30;99.90
7143;DHT22;3613;48.902;9.204;2024-03-02T04:39:43;17.40;99.90
7143;DHT22;3613;48.902;9.204;2024-03-02T04:42:09;17.40;99.90
7143;DHT22;3613;48.902;9.204;2024-03-02T04:44:37;17.40;99.90
7143;DHT22;3613;48.902;9.204;2024-03-02T04:47:06;17.30;99.90
7143;DHT22;3613;48.902;9.204;2024-03-02T04:49:31;17.30;99.90
7143;DHT22;3613;48.902;9.204;2024-03-02T04:51:57;17.40;99.90
7143;DHT22;3613;48.902;9.204;2024-03-02T04:54:23;17.30;99.90
7143;DHT22;3613;48.902;9.204;2024-03-02T04:56:48;17.80;99.90
7143;DHT22;3613;48.902;9.204;2024-03-02T04:59:19;17.30;99.90
7143;DHT22;3613;48.902;9.204;2024-03-02T05:01:45;17.30;99.90
7143;DHT22;3613;48.902;9.204;2024-03-02T05:04:16;17.30;99.90
7143;DHT22;3613;48.902;9.204;2024-03-02T05:06:41;17.30;99.90
7143;DHT22;3613;48.902;9.204;2024-03-02T05:09:09;17.30;99.90
7143;DHT22;3613;48.902;9.204;2024-03-02T05:11:38;17.30;99.90
7143;DHT22;3613;48.902;9.204;2024-03-02T05:14:04;17.30;99.90
7143;DHT22;3613;48.902;9.204;2024-03-02T05:16:33;17.30;99.90
7143;DHT22;3613;48.902;9.204;2024-03-02T05:18:59;17.30;99.90
7143;DHT22;3613;48.902;9.204;2024-03-02T05:21:25;17.30;99.90
7143;DHT22;3613;48.902;9.204;2024-03-02T05:23:50;17.30;99.90
7143;DHT22;3613;48.902;9.204;2024-03-02T05:26:16;17.30;99.90
7143;DHT22;3613;48.902;9.204;2024-03-02T05:28:44;17.40;99.90
7143;DHT22;3613;48.902;9.204;2024-03-02T05:31:15;17.30;99.90
7143;DHT22;3613;48.902;9.204;2024-03-02T05:33:43;17.30;99.90
7143;DHT22;3613;48.902;9.204;2024-03-02T05:36:09;17.20;99.90
7143;DHT22;3613;48.902;9.204;2024-03-02T05:38:37;17.30;99.90
7143;DHT22;3613;48.902;9.204;2024-03-02T05:41:06;17.30;99.90
7143;DHT22;3613;48.902;9.204;2024-03-02T05:43:31;17.20;99.90
7143;DHT22;3613;48.902;9.204;2024-03-02T05:45:57;17.20;99.90
7143;DHT22;3613;48.902;9.204;2024-03-02T05:48:22;17.20;99.90
7143;DHT22;3613;48.902;9.204;2024-03-02T05:50:48;17.20;99.90
7143;DHT22;3613;48.902;9.204;2024-03-02T05:53:14;17.20;99.90
7143;DHT22;3613;48.902;9.204;2024-03-02T05:55:40;17.20;99.90
7143;DHT22;3613;48.902;9.204;2024-03-02T05:58:06;17.20;99.90
7143;DHT22;3613;48.902;9.204;2024-03-02T06:00:32;17.20;99.90
7143;DHT22;3613;48.902;9.204;2024-03-02T06:03:00;17.20;99.90
7143;DHT22;3613;48.902;9.204;2024-03-02T06:05:28;17.20;99.90
7143;DHT22;3613;48.902;9.204;2024-03-02T06:07:54;17.20;99.90
7143;DHT22;3613;48.902;9.204;2024-03-02T06:10:20;17.20;99.90
7143;DHT22;3613;48.902;9.204;2024-03-02T06:12:48;17.20;99.90
7143;DHT22;3613;48.902;9.204;2024-03-02T06:15:14;17.20;99.90
7143;DHT22;3613;48.902;9.204;2024-03-02T06:17:42;17.20;99.90
7143;DHT22;3613;48.902;9.204;2024-03-02T06:20:10;17.20;99.90
7143;DHT22;3613;48.902;9.204;2024-03-02T06:22:36;17.20;99.90
7143;DHT22;3613;48.902;9.204;2024-03-02T06:25:02;17.20;99.90
7143;DHT22;3613;48.902;9.204;2024-03-02T06:27:27;17.20;99.90
7143;DHT22;3613;48.902;9.204;2024-03-02T06:29:55;17.20;99.90
7143;DHT22;3613;48.902;9.204;2024-03-02T06:32:20;17.20;99.90
7143;DHT22;3613;48.902;9.204;2024-03-02T06:34:46;17.20;99.90
7143;DHT22;3613;48.902;9.204;2024-03-02T06:37:12;17.10;99.90
7143;DHT22;3613;48.902;9.204;2024-03-02T06:39:38;17.20;99.90
7143;DHT22;3613;48.902;9.204;2024-03-02T06:42:04;17.20;99.90
7143;DHT22;3613;48.902;9.204;2024-03-02T06:44:29;17.20;99.90
7143;DHT22;3613;48.902;9.204;2024-03-02T06:46:57;17.20;99.90
7143;DHT22;3613;48.902;9.204;2024-03-02T06:49:23;17.20;99.90
7143;DHT22;3613;48.902;9.204;2024-03-02T06:51:48;17.30;99.90
7143;DHT22;3613;48.902;9.204;2024-03-02T06:54:17;17.20;99.90
7143;DHT22;3613;48.902;9.204;2024-03-02T06:56:43;17.20;99.90
7143;DHT22;3613;48.902;9.204;2024-03-02T06:59:08;17.20;99.90
7143;DHT22;3613;48.902;9.204;2024-03-02T07:01:34;17.20;99.90
7143;DHT22;3613;48.902;9.204;2024-03-02T07:04:02;17.20;99.90
7143;DHT22;3613;48.902;9.204;2024-03-02T07:06:27;17.30;99.90
7143;DHT22;3613;48.902;9.204;2024-03-02T07:08:55;17.30;99.90
7143;DHT22;3613;48.902;9.204;2024-03-02T07:11:21;17.30;99.90
7143;DHT22;3613;48.902;9.204;2024-03-02T07:13:47;17.30;99.90
7143;DHT22;3613;48.902;9.204;2024-03-02T07:16:12;17.20;99.90
7143;DHT22;3613;48.902;9.204;2024-03-02T07:18:55;17.30;99.90
7143;DHT22;3613;48.902;9.204;2024-03-02T07:21:22;17.30;99.90
7143;DHT22;3613;48.902;9.204;2024-03-02T07:23:50;17.40;99.90
7143;DHT22;3613;48.902;9.204;2024-03-02T07:26:16;17.40;99.90
7143;DHT22;3613;48.902;9.204;2024-03-02T07:28:44;17.40;99.90
7143;DHT22;3613;48.902;9.204;2024-03-02T07:31:10;17.50;99.90
7143;DHT22;3613;48.902;9.204;2024-03-02T07:33:35;17.50;99.90
7143;DHT22;3613;48.902;9.204;2024-03-02T07:36:01;17.60;99.90
7143;DHT22;3613;48.902;9.204;2024-03-02T07:38:28;17.60;99.90
7143;DHT22;3613;48.902;9.204;2024-03-02T07:40:54;17.60;99.90
7143;DHT22;3613;48.902;9.204;2024-03-02T07:43:21;17.60;99.90
7143;DHT22;3613;48.902;9.204;2024-03-02T07:45:51;17.60;99.90
7143;DHT22;3613;48.902;9.204;2024-03-02T07:48:17;17.70;99.90
7143;DHT22;3613;48.902;9.204;2024-03-02T07:50:45;17.70;99.90
7143;DHT22;3613;48.902;9.204;2024-03-02T07:53:10;17.70;99.90
7143;DHT22;3613;48.902;9.204;2024-03-02T07:55:36;17.70;99.90
7143;DHT22;3613;48.902;9.204;2024-03-02T07:58:05;17.60;99.90
7143;DHT22;3613;48.902;9.204;2024-03-02T08:00:30;17.70;99.90
7143;DHT22;3613;48.902;9.204;2024-03-02T08:02:59;17.60;99.90
7143;DHT22;3613;48.902;9.204;2024-03-02T08:05:24;17.70;99.90
7143;DHT22;3613;48.902;9.204;2024-03-02T08:07:52;17.70;99.90
7143;DHT22;3613;48.902;9.204;2024-03-02T08:10:18;17.70;99.90
7143;DHT22;3613;48.902;9.204;2024-03-02T08:12:46;17.60;99.90
7143;DHT22;3613;48.902;9.204;2024-03-02T08:15:12;17.70;99.90
7143;DHT22;3613;48.902;9.204;2024-03-02T08:17:40;17.70;99.90
7143;DHT22;3613;48.902;9.204;2024-03-02T08:20:11;17.70;99.90
7143;DHT22;3613;48.902;9.204;2024-03-02T08:22:37;17.70;99.90
7143;DHT22;3613;48.902;9.204;2024-03-02T08:25:06;17.70;99.90
7143;DHT22;3613;48.902;9.204;2024-03-02T08:27:34;17.70;99.90
7143;DHT22;3613;48.902;9.204;2024-03-02T08:30:00;17.70;99.90
7143;DHT22;3613;48.902;9.204;2024-03-02T08:32:25;17.70;99.90
7143;DHT22;3613;48.902;9.204;2024-03-02T08:34:51;17.70;99.90
7143;DHT22;3613;48.902;9.204;2024-03-02T08:37:17;17.70;99.90
7143;DHT22;3613;48.902;9.204;2024-03-02T08:39:42;17.70;99.90
7143;DHT22;3613;48.902;9.204;2024-03-02T08:42:09;17.70;99.90
7143;DHT22;3613;48.902;9.204;2024-03-02T08:44:35;17.80;99.90
7143;DHT22;3613;48.902;9.204;2024-03-02T08:47:00;17.80;99.90
7143;DHT22;3613;48.902;9.204;2024-03-02T08:49:26;17.80;99.90
7143;DHT22;3613;48.902;9.204;2024-03-02T08:51:52;17.90;99.90
7143;DHT22;3613;48.902;9.204;2024-03-02T08:54:22;17.90;99.90
7143;DHT22;3613;48.902;9.204;2024-03-02T08:56:51;18.00;99.90
7143;DHT22;3613;48.902;9.204;2024-03-02T08:59:17;18.00;99.90
7143;DHT22;3613;48.902;9.204;2024-03-02T09:01:45;18.10;99.90
7143;DHT22;3613;48.902;9.204;2024-03-02T09:04:10;18.20;99.90
7143;DHT22;3613;48.902;9.204;2024-03-02T09:06:36;18.20;99.90
7143;DHT22;3613;48.902;9.204;2024-03-02T09:09:02;18.20;99.90
7143;DHT22;3613;48.902;9.204;2024-03-02T09:11:28;18.30;99.90
7143;DHT22;3613;48.902;9.204;2024-03-02T09:13:54;18.30;99.90
7143;DHT22;3613;48.902;9.204;2024-03-02T09:16:21;18.40;99.90
7143;DHT22;3613;48.902;9.204;2024-03-02T09:18:47;18.30;99.90
7143;DHT22;3613;48.902;9.204;2024-03-02T09:21:14;18.10;99.90
7143;DHT22;3613;48.902;9.204;2024-03-02T09:23:40;17.90;99.90
7143;DHT22;3613;48.902;9.204;2024-03-02T09:26:06;17.60;99.90
7143;DHT22;3613;48.902;9.204;2024-03-02T09:28:31;17.40;99.90
7143;DHT22;3613;48.902;9.204;2024-03-02T09:30:57;17.40;99.90
7143;DHT22;3613;48.902;9.204;2024-03-02T09:33:23;17.40;99.90
7143;DHT22;3613;48.902;9.204;2024-03-02T09:35:48;17.50;99.90
7143;DHT22;3613;48.902;9.204;2024-03-02T09:38:14;17.60;99.90
7143;DHT22;3613;48.902;9.204;2024-03-02T09:40:42;17.70;99.90
7143;DHT22;3613;48.902;9.204;2024-03-02T09:43:09;17.80;99.90
7143;DHT22;3613;48.902;9.204;2024-03-02T09:45:34;17.90;99.90
7143;DHT22;3613;48.902;9.204;2024-03-02T09:48:00;18.00;99.90
7143;DHT22;3613;48.902;9.204;2024-03-02T09:50:26;18.10;99.90
7143;DHT22;3613;48.902;9.204;2024-03-02T09:52:52;18.20;99.90
7143;DHT22;3613;48.902;9.204;2024-03-02T09:55:20;18.30;99.90
7143;DHT22;3613;48.902;9.204;2024-03-02T09:57:46;18.30;99.90
7143;DHT22;3613;48.902;9.204;2024-03-02T10:00:14;18.30;99.90
7143;DHT22;3613;48.902;9.204;2024-03-02T10:02:41;18.40;99.90
7143;DHT22;3613;48.902;9.204;2024-03-02T10:05:09;18.40;99.90
7143;DHT22;3613;48.902;9.204;2024-03-02T10:07:40;18.40;99.90
7143;DHT22;3613;48.902;9.204;2024-03-02T10:10:17;18.50;99.90
7143;DHT22;3613;48.902;9.204;2024-03-02T10:12:43;18.50;99.90
7143;DHT22;3613;48.902;9.204;2024-03-02T10:15:08;18.50;99.90
7143;DHT22;3613;48.902;9.204;2024-03-02T10:17:35;18.60;99.90
7143;DHT22;3613;48.902;9.204;2024-03-02T10:20:20;18.50;99.90
7143;DHT22;3613;48.902;9.204;2024-03-02T10:22:46;18.60;99.90
7143;DHT22;3613;48.902;9.204;2024-03-02T10:25:31;18.60;99.90
7143;DHT22;3613;48.902;9.204;2024-03-02T10:28:00;18.60;99.90
7143;DHT22;3613;48.902;9.204;2024-03-02T10:30:29;18.60;99.90
7143;DHT22;3613;48.902;9.204;2024-03-02T10:32:55;18.60;99.90
7143;DHT22;3613;48.902;9.204;2024-03-02T10:35:22;18.60;99.90
7143;DHT22;3613;48.902;9.204;2024-03-02T10:37:52;18.60;99.90
7143;DHT22;3613;48.902;9.204;2024-03-02T10:40:18;18.60;99.90
7143;DHT22;3613;48.902;9.204;2024-03-02T10:42:47;18.60;99.90
7143;DHT22;3613;48.902;9.204;2024-03-02T10:45:15;18.60;99.90
7143;DHT22;3613;48.902;9.204;2024-03-02T10:47:42;18.60;99.90
7143;DHT22;3613;48.902;9.204;2024-03-02T10:50:09;18.60;99.90
7143;DHT22;3613;48.902;9.204;2024-03-02T10:52:35;18.70;99.90
7143;DHT22;3613;48.902;9.204;2024-03-02T10:55:03;18.70;99.90
7143;DHT22;3613;48.902;9.204;2024-03-02T10:57:51;18.60;99.90
7143;DHT22;3613;48.902;9.204;2024-03-02T11:00:18;18.70;99.90
7143;DHT22;3613;48.902;9.204;2024-03-02T11:02:55;18.80;99.90
7143;DHT22;3613;48.902;9.204;2024-03-02T11:05:33;18.70;99.90
7143;DHT22;3613;48.902;9.204;2024-03-02T11:08:07;18.70;99.90
7143;DHT22;3613;48.902;9.204;2024-03-02T11:10:37;18.70;99.90
7143;DHT22;3613;48.902;9.204;2024-03-02T11:13:09;18.70;99.90
7143;DHT22;3613;48.902;9.204;2024-03-02T11:15:36;18.70;99.90
7143;DHT22;3613;48.902;9.204;2024-03-02T11:18:04;18.70;99.90
7143;DHT22;3613;48.902;9.204;2024-03-02T11:20:39;18.70;99.90
7143;DHT22;3613;48.902;9.204;2024-03-02T11:23:07;18.70;99.90
7143;DHT22;3613;48.902;9.204;2024-03-02T11:25:33;18.70;99.90
7143;DHT22;3613;48.902;9.204;2024-03-02T11:28:07;18.70;99.90
7143;DHT22;3613;48.902;9.204;2024-03-02T11:33:06;18.80;99.90
7143;DHT22;3613;48.902;9.204;2024-03-02T11:35:44;18.70;99.90
7143;DHT22;3613;48.902;9.204;2024-03-02T11:38:16;18.80;99.90
7143;DHT22;3613;48.902;9.204;2024-03-02T11:40:43;18.80;99.90
7143;DHT22;3613;48.902;9.204;2024-03-02T11:43:09;18.80;99.90
7143;DHT22;3613;48.902;9.204;2024-03-02T11:45:36;18.80;99.90
7143;DHT22;3613;48.902;9.204;2024-03-02T11:48:07;18.80;99.90
7143;DHT22;3613;48.902;9.204;2024-03-02T11:50:40;18.80;99.90
7143;DHT22;3613;48.902;9.204;2024-03-02T11:53:09;18.80;99.90
7143;DHT22;3613;48.902;9.204;2024-03-02T11:55:36;18.80;99.90
7143;DHT22;3613;48.902;9.204;2024-03-02T11:58:05;18.80;99.90
7143;DHT22;3613;48.902;9.204;2024-03-02T12:00:31;18.80;99.90
7143;DHT22;3613;48.902;9.204;2024-03-02T12:03:02;18.80;99.90
7143;DHT22;3613;48.902;9.204;2024-03-02T12:05:30;20.60;99.90
7143;DHT22;3613;48.902;9.204;2024-03-02T12:07:59;18.90;99.90
7143;DHT22;3613;48.902;9.204;2024-03-02T12:10:25;18.80;99.90
7143;DHT22;3613;48.902;9.204;2024-03-02T12:13:01;18.80;99.90
7143;DHT22;3613;48.902;9.204;2024-03-02T12:15:31;18.80;99.90
7143;DHT22;3613;48.902;9.204;2024-03-02T12:17:59;18.80;99.90
7143;DHT22;3613;48.902;9.204;2024-03-02T12:20:29;18.80;99.90
7143;DHT22;3613;48.902;9.204;2024-03-02T12:22:59;18.80;99.90
7143;DHT22;3613;48.902;9.204;2024-03-02T12:25:25;18.90;99.90
7143;DHT22;3613;48.902;9.204;2024-03-02T12:27:58;18.80;99.90
7143;DHT22;3613;48.902;9.204;2024-03-02T12:30:27;18.80;99.90
7143;DHT22;3613;48.902;9.204;2024-03-02T12:32:54;18.80;99.90
7143;DHT22;3613;48.902;9.204;2024-03-02T12:35:20;18.80;99.90
7143;DHT22;3613;48.902;9.204;2024-03-02T12:37:52;18.70;99.90
7143;DHT22;3613;48.902;9.204;2024-03-02T12:40:21;18.80;99.90
7143;DHT22;3613;48.902;9.204;2024-03-02T12:42:49;18.80;99.90
7143;DHT22;3613;48.902;9.204;2024-03-02T12:45:17;18.80;99.90
7143;DHT22;3613;48.902;9.204;2024-03-02T12:47:49;18.70;99.90
7143;DHT22;3613;48.902;9.204;2024-03-02T12:50:17;18.80;99.90
7143;DHT22;3613;48.902;9.204;2024-03-02T12:52:43;18.80;99.90
7143;DHT22;3613;48.902;9.204;2024-03-02T12:55:09;18.80;99.90
7143;DHT22;3613;48.902;9.204;2024-03-02T12:57:35;18.80;99.90
7143;DHT22;3613;48.902;9.204;2024-03-02T13:00:05;18.80;99.90
7143;DHT22;3613;48.902;9.204;2024-03-02T13:02:41;18.80;99.90
7143;DHT22;3613;48.902;9.204;2024-03-02T13:05:07;18.80;99.90
7143;DHT22;3613;48.902;9.204;2024-03-02T13:07:41;18.80;99.90
7143;DHT22;3613;48.902;9.204;2024-03-02T13:10:07;18.80;99.90
7143;DHT22;3613;48.902;9.204;2024-03-02T13:12:35;18.80;99.90
7143;DHT22;3613;48.902;9.204;2024-03-02T13:15:04;18.80;99.90
7143;DHT22;3613;48.902;9.204;2024-03-02T13:17:34;18.80;99.90
7143;DHT22;3613;48.902;9.204;2024-03-02T13:20:02;18.90;99.90
7143;DHT22;3613;48.902;9.204;2024-03-02T13:22:29;18.90;99.90
7143;DHT22;3613;48.902;9.204;2024-03-02T13:24:55;18.90;99.90
7143;DHT22;3613;48.902;9.204;2024-03-02T13:27:27;19.00;99.90
7143;DHT22;3613;48.902;9.204;2024-03-02T13:29:55;18.90;99.90
7143;DHT22;3613;48.902;9.204;2024-03-02T13:32:23;18.90;99.90
7143;DHT22;3613;48.902;9.204;2024-03-02T13:34:50;18.90;99.90
7143;DHT22;3613;48.902;9.204;2024-03-02T13:37:15;18.90;99.90
7143;DHT22;3613;48.902;9.204;2024-03-02T13:39:43;19.00;99.90
7143;DHT22;3613;48.902;9.204;2024-03-02T13:42:12;18.80;99.90
7143;DHT22;3613;48.902;9.204;2024-03-02T13:44:43;18.80;99.90
7143;DHT22;3613;48.902;9.204;2024-03-02T13:47:14;18.90;99.90
7143;DHT22;3613;48.902;9.204;2024-03-02T13:49:40;18.80;99.90
7143;DHT22;3613;48.902;9.204;2024-03-02T13:52:09;18.90;99.90
7143;DHT22;3613;48.902;9.204;2024-03-02T13:54:47;18.90;99.90
7143;DHT22;3613;48.902;9.204;2024-03-02T13:57:13;18.90;99.90
7143;DHT22;3613;48.902;9.204;2024-03-02T13:59:42;18.90;99.90
7143;DHT22;3613;48.902;9.204;2024-03-02T14:02:08;18.90;99.90
7143;DHT22;3613;48.902;9.204;2024-03-02T14:04:35;18.90;99.90
7143;DHT22;3613;48.902;9.204;2024-03-02T14:07:03;18.90;99.90
7143;DHT22;3613;48.902;9.204;2024-03-02T14:09:34;18.90;99.90
7143;DHT22;3613;48.902;9.204;2024-03-02T14:12:10;18.90;99.90
7143;DHT22;3613;48.902;9.204;2024-03-02T14:14:35;18.90;99.90
7143;DHT22;3613;48.902;9.204;2024-03-02T14:17:01;18.90;99.90
7143;DHT22;3613;48.902;9.204;2024-03-02T14:19:33;18.90;99.90
7143;DHT22;3613;48.902;9.204;2024-03-02T14:21:59;18.90;99.90
7143;DHT22;3613;48.902;9.204;2024-03-02T14:24:25;18.90;99.90
7143;DHT22;3613;48.902;9.204;2024-03-02T14:26:52;19.00;99.90
7143;DHT22;3613;48.902;9.204;2024-03-02T14:29:20;19.00;99.90
7143;DHT22;3613;48.902;9.204;2024-03-02T14:31:46;18.90;99.90
7143;DHT22;3613;48.902;9.204;2024-03-02T14:34:15;19.00;99.90
7143;DHT22;3613;48.902;9.204;2024-03-02T14:36:41;19.00;99.90
7143;DHT22;3613;48.902;9.204;2024-03-02T14:39:09;18.90;99.90
7143;DHT22;3613;48.902;9.204;2024-03-02T14:41:37;19.00;99.90
7143;DHT22;3613;48.902;9.204;2024-03-02T14:44:06;19.00;99.90
7143;DHT22;3613;48.902;9.204;2024-03-02T14:46:36;19.00;99.90
7143;DHT22;3613;48.902;9.204;2024-03-02T14:49:02;19.00;99.90
7143;DHT22;3613;48.902;9.204;2024-03-02T14:51:28;19.00;99.90
7143;DHT22;3613;48.902;9.204;2024-03-02T14:53:55;19.00;99.90
7143;DHT22;3613;48.902;9.204;2024-03-02T14:56:23;19.10;99.90
7143;DHT22;3613;48.902;9.204;2024-03-02T14:58:51;19.00;99.90
7143;DHT22;3613;48.902;9.204;2024-03-02T15:01:17;19.00;99.90
7143;DHT22;3613;48.902;9.204;2024-03-02T15:03:43;19.00;99.90
7143;DHT22;3613;48.902;9.204;2024-03-02T15:06:09;19.00;99.90
7143;DHT22;3613;48.902;9.204;2024-03-02T15:08:35;19.00;99.90
7143;DHT22;3613;48.902;9.204;2024-03-02T15:11:01;19.00;99.90
7143;DHT22;3613;48.902;9.204;2024-03-02T15:13:29;19.00;99.90
7143;DHT22;3613;48.902;9.204;2024-03-02T15:15:54;19.00;99.90
7143;DHT22;3613;48.902;9.204;2024-03-02T15:18:20;19.00;99.90
7143;DHT22;3613;48.902;9.204;2024-03-02T15:20:46;19.00;99.90
7143;DHT22;3613;48.902;9.204;2024-03-02T15:23:11;19.00;99.90
7143;DHT22;3613;48.902;9.204;2024-03-02T15:25:39;19.00;99.90
7143;DHT22;3613;48.902;9.204;2024-03-02T15:28:05;19.10;99.90
7143;DHT22;3613;48.902;9.204;2024-03-02T15:30:30;19.00;99.90
7143;DHT22;3613;48.902;9.204;2024-03-02T15:32:56;19.00;99.90
7143;DHT22;3613;48.902;9.204;2024-03-02T15:35:22;19.10;99.90
7143;DHT22;3613;48.902;9.204;2024-03-02T15:37:50;19.10;99.90
7143;DHT22;3613;48.902;9.204;2024-03-02T15:40:15;19.10;99.90
7143;DHT22;3613;48.902;9.204;2024-03-02T15:42:41;19.00;99.90
7143;DHT22;3613;48.902;9.204;2024-03-02T15:45:07;19.00;99.90
7143;DHT22;3613;48.902;9.204;2024-03-02T15:47:33;19.00;99.90
7143;DHT22;3613;48.902;9.204;2024-03-02T15:50:03;19.10;99.90
7143;DHT22;3613;48.902;9.204;2024-03-02T15:52:30;19.10;99.90
7143;DHT22;3613;48.902;9.204;2024-03-02T15:54:58;19.10;99.90
7143;DHT22;3613;48.902;9.204;2024-03-02T15:57:26;19.10;99.90
7143;DHT22;3613;48.902;9.204;2024-03-02T15:59:51;19.00;99.90
7143;DHT22;3613;48.902;9.204;2024-03-02T16:02:17;19.00;99.90
7143;DHT22;3613;48.902;9.204;2024-03-02T16:04:42;19.10;99.90
7143;DHT22;3613;48.902;9.204;2024-03-02T16:07:08;19.10;99.90
7143;DHT22;3613;48.902;9.204;2024-03-02T16:09:34;19.00;99.90